createdAt,value
2023-01-11T00:01:09.587Z,6.00
2023-01-11T00:05:15.151Z,6.00
2023-01-11T00:09:20.766Z,6.00
2023-01-11T00:13:26.257Z,6.00
2023-01-11T00:17:31.772Z,6.10
2023-01-11T00:21:37.221Z,6.00
2023-01-11T00:25:42.652Z,6.00
2023-01-11T00:29:48.265Z,6.10
2023-01-11T00:33:53.636Z,6.10
2023-01-11T00:37:59.513Z,6.00
2023-01-11T00:42:23.827Z,6.00
2023-01-11T00:46:47.728Z,6.10
2023-01-11T00:50:55.561Z,6.10
2023-01-11T00:55:01.003Z,6.10
2023-01-11T00:59:06.715Z,6.10
2023-01-11T01:03:12.172Z,6.20
2023-01-11T01:07:17.657Z,6.20
2023-01-11T01:11:23.656Z,6.20
2023-01-11T01:15:29.457Z,6.20
2023-01-11T01:19:38.494Z,6.20
2023-01-11T01:23:44.015Z,6.30
2023-01-11T01:27:49.684Z,6.30
2023-01-11T01:31:55.108Z,6.30
2023-01-11T01:36:04.607Z,6.30
2023-01-11T01:40:10.864Z,6.30
2023-01-11T01:44:57.006Z,6.30
2023-01-11T01:49:09.866Z,6.40
2023-01-11T01:53:24.288Z,6.40
2023-01-11T01:57:33.558Z,6.40
2023-01-11T02:01:48.424Z,6.40
2023-01-11T02:05:54.353Z,6.40
2023-01-11T02:10:18.269Z,6.40
2023-01-11T02:14:24.392Z,6.50
2023-01-11T02:18:29.869Z,6.50
2023-01-11T02:22:44.187Z,6.50
2023-01-11T02:27:18.977Z,6.50
2023-01-11T02:31:48.949Z,6.60
2023-01-11T02:36:27.649Z,6.60
2023-01-11T02:40:47.972Z,6.60
2023-01-11T02:45:11.409Z,6.70
2023-01-11T02:50:01.381Z,6.70
2023-01-11T02:54:10.790Z,6.70
2023-01-11T02:58:18.595Z,6.70
2023-01-11T03:02:24.893Z,6.70
2023-01-11T03:06:34.753Z,6.70
2023-01-11T03:11:06.214Z,6.70
2023-01-11T03:15:17.266Z,6.80
2023-01-11T03:20:07.143Z,6.80
2023-01-11T03:24:49.789Z,6.80
2023-01-11T03:29:44.410Z,6.90
2023-01-11T03:34:16.214Z,6.90
2023-01-11T03:38:31.493Z,6.90
2023-01-11T03:43:02.041Z,7.00
2023-01-11T03:47:10.375Z,7.00
2023-01-11T03:51:22.589Z,7.00
2023-01-11T03:55:30.487Z,7.10
2023-01-11T03:59:36.293Z,7.10
2023-01-11T04:03:41.747Z,7.10
2023-01-11T04:07:47.226Z,7.20
2023-01-11T04:11:52.712Z,7.20
2023-01-11T04:15:58.294Z,7.20
2023-01-11T04:20:03.882Z,7.20
2023-01-11T04:24:09.384Z,7.30
2023-01-11T04:28:15.178Z,7.30
2023-01-11T04:32:20.633Z,7.30
2023-01-11T04:36:26.516Z,7.30
2023-01-11T04:40:32.035Z,7.30
2023-01-11T04:44:37.522Z,7.40
2023-01-11T04:48:42.946Z,7.40
2023-01-11T04:52:48.554Z,7.40
2023-01-11T04:56:54.034Z,7.40
2023-01-11T05:00:59.491Z,7.50
2023-01-11T05:05:06.520Z,7.50
2023-01-11T05:09:21.404Z,7.60
2023-01-11T05:13:42.772Z,7.60
2023-01-11T05:17:48.216Z,7.60
2023-01-11T05:21:53.870Z,7.60
2023-01-11T05:25:59.262Z,7.70
2023-01-11T05:30:05.347Z,7.70
2023-01-11T05:34:14.072Z,7.70
2023-01-11T05:38:19.496Z,7.70
2023-01-11T05:42:25.057Z,7.80
2023-01-11T05:46:32.086Z,7.80
2023-01-11T05:50:37.746Z,7.80
2023-01-11T05:54:43.147Z,8.20
2023-01-11T05:58:50.536Z,8.10
2023-01-11T06:02:56.178Z,8.10
2023-01-11T06:07:01.847Z,8.10
2023-01-11T06:11:07.814Z,8.10
2023-01-11T06:15:13.311Z,8.20
2023-01-11T06:19:18.817Z,8.20
2023-01-11T06:23:25.669Z,8.10
2023-01-11T06:27:31.152Z,8.20
2023-01-11T06:31:36.695Z,8.20
2023-01-11T06:35:44.027Z,8.20
2023-01-11T06:39:49.599Z,8.30
2023-01-11T06:43:55.174Z,8.30
2023-01-11T06:48:01.095Z,8.30
2023-01-11T06:52:06.547Z,8.30
2023-01-11T06:56:17.420Z,8.30
2023-01-11T07:00:23.742Z,8.30
2023-01-11T07:04:30.925Z,8.40
2023-01-11T07:08:38.149Z,8.40
2023-01-11T07:12:43.692Z,8.40
2023-01-11T07:16:49.202Z,8.40
2023-01-11T07:20:54.716Z,8.40
2023-01-11T07:25:00.217Z,8.40
2023-01-11T07:29:05.628Z,8.40
2023-01-11T07:33:11.781Z,8.50
2023-01-11T07:37:29.018Z,8.50
2023-01-11T07:41:53.946Z,8.60
2023-01-11T07:45:59.654Z,8.50
2023-01-11T07:50:08.573Z,8.60
2023-01-11T07:54:14.207Z,8.60
2023-01-11T07:58:19.670Z,8.70
2023-01-11T08:02:25.225Z,8.60
2023-01-11T08:06:30.726Z,8.70
2023-01-11T08:10:36.251Z,8.80
2023-01-11T08:14:42.083Z,8.70
2023-01-11T08:18:51.822Z,8.80
2023-01-11T08:22:57.292Z,8.80
2023-01-11T08:27:03.448Z,8.80
2023-01-11T08:31:09.617Z,8.80
2023-01-11T08:35:15.108Z,8.90
2023-01-11T08:39:20.723Z,8.90
2023-01-11T08:43:26.555Z,9.00
2023-01-11T08:47:31.975Z,9.00
2023-01-11T08:51:41.650Z,9.00
2023-01-11T08:55:53.871Z,9.00
2023-01-11T08:59:59.298Z,9.10
2023-01-11T09:04:12.538Z,9.10
2023-01-11T09:08:29.330Z,9.10
2023-01-11T09:12:35.040Z,9.20
2023-01-11T09:16:40.488Z,9.30
2023-01-11T09:20:45.971Z,9.30
2023-01-11T09:24:51.536Z,9.30
2023-01-11T09:28:57.055Z,9.30
2023-01-11T09:33:04.829Z,9.50
2023-01-11T09:37:10.317Z,9.40
2023-01-11T09:41:34.017Z,9.50
2023-01-11T09:45:46.594Z,9.50
2023-01-11T09:49:58.500Z,9.60
2023-01-11T09:54:07.902Z,9.60
2023-01-11T09:58:46.799Z,9.70
2023-01-11T10:03:35.965Z,9.80
2023-01-11T10:23:55.554Z,9.90
2023-01-11T10:28:07.650Z,10.00
2023-01-11T10:32:45.590Z,10.10
2023-01-11T10:37:21.196Z,10.10
2023-01-11T10:41:38.635Z,10.10
2023-01-11T10:46:00.163Z,10.20
2023-01-11T10:50:36.569Z,10.20
2023-01-11T10:54:46.888Z,10.30
2023-01-11T10:59:28.394Z,10.30
2023-01-11T11:03:52.848Z,10.20
2023-01-11T11:08:27.761Z,10.30
2023-01-11T11:12:39.148Z,10.30
2023-01-11T11:17:26.069Z,10.40
2023-01-11T11:21:40.852Z,10.50
2023-01-11T11:25:56.515Z,10.40
2023-01-11T11:30:02.041Z,10.40
2023-01-11T11:34:14.045Z,10.50
2023-01-11T11:38:32.243Z,10.40
2023-01-11T11:42:37.659Z,10.50
2023-01-11T11:47:01.036Z,10.50
2023-01-11T11:51:13.946Z,10.50
2023-01-11T11:55:30.587Z,10.50
2023-01-11T11:59:36.176Z,10.50
2023-01-11T12:03:43.489Z,10.50
2023-01-11T12:07:55.677Z,10.60
2023-01-11T12:12:02.303Z,10.60
2023-01-11T12:16:22.969Z,10.60
2023-01-11T12:20:37.210Z,10.60
2023-01-11T12:24:42.848Z,10.60
2023-01-11T12:29:26.611Z,10.60
2023-01-11T12:33:57.903Z,10.60
2023-01-11T12:38:52.401Z,10.60
2023-01-11T12:43:41.560Z,10.60
2023-01-11T12:47:58.897Z,10.60
2023-01-11T12:52:30.602Z,10.60
2023-01-11T12:56:42.142Z,10.60
2023-01-11T13:01:06.251Z,10.60
2023-01-11T13:05:28.297Z,10.60
2023-01-11T13:09:45.899Z,10.60
2023-01-11T13:14:16.855Z,10.50
2023-01-11T13:18:41.495Z,10.60
2023-01-11T13:22:58.989Z,10.50
2023-01-11T13:27:15.887Z,10.50
2023-01-11T13:31:22.919Z,10.50
2023-01-11T13:35:37.518Z,10.50
2023-01-11T13:39:57.627Z,10.40
2023-01-11T13:44:09.875Z,10.40
2023-01-11T13:48:34.091Z,10.40
2023-01-11T13:53:13.752Z,10.40
2023-01-11T13:58:01.730Z,10.40
2023-01-11T14:02:47.477Z,10.40
2023-01-11T14:07:22.066Z,10.40
2023-01-11T14:12:01.559Z,10.40
2023-01-11T14:16:31.562Z,10.30
2023-01-11T14:21:11.020Z,10.30
2023-01-11T14:26:19.218Z,10.20
2023-01-11T14:30:24.602Z,10.20
2023-01-11T14:35:13.630Z,10.10
2023-01-11T14:39:40.975Z,10.10
2023-01-11T14:44:14.616Z,10.00
2023-01-11T14:48:51.971Z,10.00
2023-01-11T14:53:00.992Z,9.90
2023-01-11T14:57:06.476Z,9.90
2023-01-11T15:01:12.100Z,9.80
2023-01-11T15:05:29.706Z,9.80
2023-01-11T15:09:47.110Z,9.70
2023-01-11T15:14:04.116Z,9.70
2023-01-11T15:18:21.883Z,9.70
2023-01-11T15:22:33.402Z,9.50
2023-01-11T15:26:48.714Z,9.50
2023-01-11T15:30:57.165Z,9.40
2023-01-11T15:35:32.008Z,9.30
2023-01-11T15:40:04.031Z,9.30
2023-01-11T15:44:36.730Z,9.30
2023-01-11T15:49:14.539Z,9.20
2023-01-11T15:54:05.326Z,9.10
2023-01-11T15:58:58.168Z,9.00
2023-01-11T16:03:40.852Z,9.00
2023-01-11T16:08:16.119Z,8.90
2023-01-11T16:12:41.159Z,8.90
2023-01-11T16:16:54.520Z,8.80
2023-01-11T16:21:09.996Z,8.80
2023-01-11T16:25:15.575Z,8.70
2023-01-11T16:29:25.796Z,8.60
2023-01-11T16:33:34.475Z,8.60
2023-01-11T16:37:45.415Z,8.60
2023-01-11T16:41:55.476Z,8.50
2023-01-11T16:46:00.962Z,8.50
2023-01-11T16:50:22.715Z,8.50
2023-01-11T16:54:32.439Z,8.40
2023-01-11T16:58:40.397Z,8.40
2023-01-11T17:02:48.830Z,8.30
2023-01-11T17:06:56.037Z,8.30
2023-01-11T17:11:26.192Z,8.20
2023-01-11T17:15:58.775Z,8.20
2023-01-11T17:20:20.994Z,8.10
2023-01-11T17:24:27.500Z,8.10
2023-01-11T17:28:33.013Z,8.00
2023-01-11T17:32:43.405Z,8.00
2023-01-11T17:36:49.699Z,8.00
2023-01-11T17:40:56.823Z,8.00
2023-01-11T17:45:21.084Z,7.90
2023-01-11T17:49:26.833Z,7.90
2023-01-11T17:53:35.096Z,7.80
2023-01-11T17:57:41.051Z,7.80
2023-01-11T18:01:50.336Z,7.70
2023-01-11T18:05:55.927Z,7.70
2023-01-11T18:10:03.449Z,7.60
2023-01-11T18:14:24.728Z,7.60
2023-01-11T18:18:45.650Z,7.60
2023-01-11T18:22:54.090Z,7.50
2023-01-11T18:27:30.438Z,7.50
2023-01-11T18:31:35.969Z,7.50
2023-01-11T18:35:46.028Z,7.50
2023-01-11T18:39:52.885Z,7.40
2023-01-11T18:43:58.582Z,7.40
2023-01-11T18:48:10.836Z,7.40
2023-01-11T18:52:17.379Z,7.40
2023-01-11T18:56:23.141Z,7.40
2023-01-11T19:00:28.612Z,7.40
2023-01-11T19:04:34.189Z,7.40
2023-01-11T19:08:39.960Z,7.40
2023-01-11T19:12:46.095Z,7.30
2023-01-11T19:16:51.604Z,7.30
2023-01-11T19:21:06.481Z,7.30
2023-01-11T19:25:12.364Z,7.30
2023-01-11T19:29:19.092Z,7.30
2023-01-11T19:33:24.881Z,7.30
2023-01-11T19:37:31.072Z,7.30
2023-01-11T19:41:55.083Z,7.30
2023-01-11T19:46:02.199Z,7.30
2023-01-11T19:50:09.084Z,7.30
2023-01-11T19:54:14.849Z,7.30
2023-01-11T19:58:20.269Z,7.30
2023-01-11T20:02:26.186Z,7.30
2023-01-11T20:06:32.131Z,7.30
2023-01-11T20:10:37.666Z,7.30
2023-01-11T20:14:44.625Z,7.20
2023-01-11T20:18:55.908Z,7.20
2023-01-11T20:23:01.371Z,7.20
2023-01-11T20:27:06.961Z,7.20
2023-01-11T20:31:12.626Z,7.20
2023-01-11T20:35:18.226Z,7.10
2023-01-11T20:39:25.492Z,7.10
2023-01-11T20:43:30.928Z,7.10
2023-01-11T20:47:37.441Z,7.00
2023-01-11T20:51:44.015Z,7.00
2023-01-11T20:55:49.400Z,7.00
2023-01-11T20:59:56.286Z,7.00
2023-01-11T21:04:05.600Z,7.00
2023-01-11T21:08:11.236Z,6.90
2023-01-11T21:12:18.431Z,6.90
2023-01-11T21:16:27.499Z,6.90
2023-01-11T21:20:33.751Z,6.80
2023-01-11T21:24:40.988Z,6.80
2023-01-11T21:28:52.377Z,6.80
2023-01-11T21:32:58.140Z,6.80
2023-01-11T21:37:03.734Z,6.80
2023-01-11T21:41:13.858Z,6.80
2023-01-11T21:45:19.411Z,6.80
2023-01-11T21:49:24.876Z,6.80
2023-01-11T21:53:32.428Z,6.80
2023-01-11T21:57:37.828Z,6.70
2023-01-11T22:01:45.503Z,6.70
2023-01-11T22:05:51.033Z,6.70
2023-01-11T22:10:04.532Z,6.70
2023-01-11T22:14:10.692Z,6.70
2023-01-11T22:18:16.115Z,6.60
2023-01-11T22:22:21.625Z,6.60
2023-01-11T22:26:33.527Z,6.60
2023-01-11T22:30:38.990Z,6.60
2023-01-11T22:34:44.529Z,6.60
2023-01-11T22:38:51.714Z,6.60
2023-01-11T22:42:57.147Z,6.60
2023-01-11T22:47:02.765Z,6.60
2023-01-11T22:51:09.891Z,6.60
2023-01-11T22:55:15.398Z,6.60
2023-01-11T22:59:20.889Z,6.60
2023-01-11T23:03:26.336Z,6.60
2023-01-11T23:07:31.820Z,6.60
2023-01-11T23:11:58.230Z,6.70
2023-01-11T23:16:03.832Z,6.70
2023-01-11T23:20:10.562Z,6.70
2023-01-11T23:24:17.547Z,6.80
2023-01-11T23:28:23.492Z,6.80
2023-01-11T23:32:28.966Z,6.80
2023-01-11T23:36:38.047Z,6.80
2023-01-11T23:41:01.945Z,6.80
2023-01-11T23:45:08.335Z,6.90
2023-01-11T23:49:14.647Z,6.90
2023-01-11T23:53:22.952Z,6.90
2023-01-11T23:57:28.561Z,6.90
